Time;durP1;ratioP1;P1;durP2;ratioP2;P2;SDS_P1;SDS_P2;PMS_P1;PMS_P2;Temp;Humidity;BMP_temperature;BMP_pressure;BME280_temperature;BME280_humidity;BME280_pressure;Samples;Min_cycle;Max_cycle;Signal;HPM_P1;HPM_P2
2022/05/17 00:01:44;;;;;;;;;;;;;;;;;;4982272;28;19926;-61
2022/05/17 00:04:09;;;;;;;;;;;;;;;;;;4971222;28;19960;-60
2022/05/17 00:06:34;;;;;;;;;;;;;;;;;;4988527;28;19967;-61
2022/05/17 00:09:02;;;;;;;;;;;;;;;;;;4985551;28;19964;-61
2022/05/17 00:11:28;;;;;;;;;;;;;;;;;;5012201;28;20053;-61
2022/05/17 00:13:53;;;;;;;;;;;;;;;;;;4995949;28;19926;-62
2022/05/17 00:16:21;;;;;;;;;;;;;;;;;;5000423;28;19921;-60
2022/05/17 00:18:49;;;;;;;;;;;;;;;;;;4988602;28;19932;-60
2022/05/17 00:21:14;;;;;;;;;;;;;;;;;;4986752;28;19921;-60
2022/05/17 00:23:41;;;;;;;;;;;;;;;;;;4981854;28;19921;-61
2022/05/17 00:26:09;;;;;;;;;;;;;;;;;;4971105;28;19957;-60
2022/05/17 00:28:34;;;;;;;;;;;;;;;;;;4988772;28;19933;-61
2022/05/17 00:31:01;;;;;;;;;;;;;;;;;;4980425;28;19917;-60
2022/05/17 00:33:26;;;;;;;;;;;;;;;;;;5013089;28;19961;-61
2022/05/17 00:35:51;;;;;;;;;;;;;;;;;;4980907;28;19917;-61
2022/05/17 00:38:17;;;;;;;;;;;;;;;;;;4988337;28;20623;-62
2022/05/17 00:40:43;;;;;;;;;;;;;;;;;;5012293;28;19984;-61
2022/05/17 00:43:08;;;;;;;;;;;;;;;;;;4983505;28;19933;-61
2022/05/17 00:45:33;;;;;;;;;;;;;;;;;;4985751;28;19918;-62
2022/05/17 00:48:04;;;;;;;;;;;;;;;;;;4983603;28;21087;-61
2022/05/17 00:50:29;;;;;;;;;;;;;;;;;;5016680;28;20668;-61
2022/05/17 00:52:55;;;;;;;;;;;;;;;;;;4992663;28;19918;-61
2022/05/17 00:55:20;;;;;;;;;;;;;;;;;;4992203;28;19925;-61
2022/05/17 00:57:47;;;;;;;;;;;;;;;;;;5016892;28;19929;-61
2022/05/17 01:00:13;;;;;;;;;;;;;;;;;;4983496;28;19999;-61
2022/05/17 01:02:38;;;;;;;;;;;;;;;;;;4984775;28;19967;-61
2022/05/17 01:05:04;;;;;;;;;;;;;;;;;;4982702;28;20013;-61
2022/05/17 01:07:32;;;;;;;;;;;;;;;;;;5001944;28;21724;-62
2022/05/17 01:09:57;;;;;;;;;;;;;;;;;;5000351;28;19925;-61
2022/05/17 01:12:22;;;;;;;;;;;;;;;;;;4990925;28;19926;-61
2022/05/17 01:14:57;;;;;;;;;;;;;;;;;;4984298;28;19925;-60
2022/05/17 01:17:22;;;;;;;;;;;;;;;;;;4984317;28;20000;-60
2022/05/17 01:19:47;;;;;;;;;;;;;;;;;;4972799;28;19925;-61
2022/05/17 01:22:17;;;;;;;;;;;;;;;;;;4983287;28;19926;-61
2022/05/17 01:24:42;;;;;;;;;;;;;;;;;;5005538;28;20296;-62
2022/05/17 01:27:10;;;;;;;;;;;;;;;;;;4998559;28;20016;-61
2022/05/17 01:29:37;;;;;;;;;;;;;;;;;;5005160;28;19921;-62
2022/05/17 01:32:02;;;;;;;;;;;;;;;;;;4983407;28;19976;-61
2022/05/17 01:34:30;;;;;;;;;;;;;;;;;;4986473;28;19921;-61
2022/05/17 01:36:58;;;;;;;;;;;;;;;;;;5005693;28;19925;-58
2022/05/17 01:39:26;;;;;;;;;;;;;;;;;;4984238;28;19929;-60
2022/05/17 01:41:54;;;;;;;;;;;;;;;;;;4983380;28;20993;-60
2022/05/17 01:44:22;;;;;;;;;;;;;;;;;;4991853;28;19992;-61
2022/05/17 01:46:53;;;;;;;;;;;;;;;;;;4993256;28;19947;-60
2022/05/17 01:49:18;;;;;;;;;;;;;;;;;;4981536;28;19924;-60
2022/05/17 01:51:46;;;;;;;;;;;;;;;;;;4984992;28;21882;-60
2022/05/17 01:54:11;;;;;;;;;;;;;;;;;;5016874;28;19928;-60
2022/05/17 01:56:36;;;;;;;;;;;;;;;;;;4982301;28;19953;-60
2022/05/17 01:59:04;;;;;;;;;;;;;;;;;;4985522;28;19926;-60
2022/05/17 02:01:29;;;;;;;;;;;;;;;;;;4986035;28;19961;-60
2022/05/17 02:03:54;;;;;;;;;;;;;;;;;;4981935;28;20091;-61
2022/05/17 02:06:20;;;;;;;;;;;;;;;;;;4982970;28;20064;-61
2022/05/17 02:08:46;;;;;;;;;;;;;;;;;;4985083;28;20471;-61
2022/05/17 02:11:11;;;;;;;;;;;;;;;;;;4982597;28;19947;-61
2022/05/17 02:13:38;;;;;;;;;;;;;;;;;;4985978;28;19972;-61
2022/05/17 02:16:06;;;;;;;;;;;;;;;;;;5006808;28;19926;-61
2022/05/17 02:18:36;;;;;;;;;;;;;;;;;;4989466;28;19934;-62
2022/05/17 02:21:03;;;;;;;;;;;;;;;;;;4973861;28;19973;-60
2022/05/17 02:23:33;;;;;;;;;;;;;;;;;;5015098;28;19926;-60
2022/05/17 02:26:01;;;;;;;;;;;;;;;;;;4984678;28;19921;-60
2022/05/17 02:28:27;;;;;;;;;;;;;;;;;;4984342;28;19983;-59
2022/05/17 02:30:56;;;;;;;;;;;;;;;;;;4983224;28;19921;-62
2022/05/17 02:33:22;;;;;;;;;;;;;;;;;;4985190;28;19940;-59
2022/05/17 02:35:47;;;;;;;;;;;;;;;;;;4983367;28;20850;-60
2022/05/17 02:38:12;;;;;;;;;;;;;;;;;;4983914;28;19976;-61
2022/05/17 02:40:40;;;;;;;;;;;;;;;;;;4983507;28;20589;-61
2022/05/17 02:43:05;;;;;;;;;;;;;;;;;;4981727;28;19923;-61
2022/05/17 02:45:31;;;;;;;;;;;;;;;;;;4984438;28;19921;-61
2022/05/17 02:47:57;;;;;;;;;;;;;;;;;;4984715;28;20553;-62
2022/05/17 02:50:22;;;;;;;;;;;;;;;;;;4985324;28;19926;-60
2022/05/17 02:52:50;;;;;;;;;;;;;;;;;;4985735;28;19918;-60
2022/05/17 02:55:18;;;;;;;;;;;;;;;;;;4984922;28;19996;-61
2022/05/17 02:57:46;;;;;;;;;;;;;;;;;;4984134;28;19922;-60
2022/05/17 03:00:13;;;;;;;;;;;;;;;;;;4981288;28;19940;-61
2022/05/17 03:02:42;;;;;;;;;;;;;;;;;;4982384;28;19925;-61
2022/05/17 03:05:07;;;;;;;;;;;;;;;;;;4981088;28;19921;-61
2022/05/17 03:07:35;;;;;;;;;;;;;;;;;;4983113;28;19996;-60
2022/05/17 03:10:00;;;;;;;;;;;;;;;;;;5006178;28;19953;-61
2022/05/17 03:12:28;;;;;;;;;;;;;;;;;;4990911;28;20497;-61
2022/05/17 03:14:55;;;;;;;;;;;;;;;;;;4981993;28;19925;-61
2022/05/17 03:17:21;;;;;;;;;;;;;;;;;;4985760;28;20302;-61
2022/05/17 03:19:46;;;;;;;;;;;;;;;;;;4981638;28;19932;-61
2022/05/17 03:22:12;;;;;;;;;;;;;;;;;;4981870;28;20535;-61
2022/05/17 03:24:39;;;;;;;;;;;;;;;;;;4990327;28;19918;-61
2022/05/17 03:27:05;;;;;;;;;;;;;;;;;;4983882;28;19960;-61
2022/05/17 03:29:33;;;;;;;;;;;;;;;;;;4984422;28;19948;-61
2022/05/17 03:32:01;;;;;;;;;;;;;;;;;;4981158;28;19932;-60
2022/05/17 03:34:28;;;;;;;;;;;;;;;;;;4983871;28;20122;-61
2022/05/17 03:36:54;;;;;;;;;;;;;;;;;;4982523;28;19921;-61
2022/05/17 03:39:19;;;;;;;;;;;;;;;;;;4991705;28;19925;-61
2022/05/17 03:41:47;;;;;;;;;;;;;;;;;;4983425;28;19921;-61
2022/05/17 03:44:17;;;;;;;;;;;;;;;;;;4981433;28;20912;-61
2022/05/17 03:46:46;;;;;;;;;;;;;;;;;;4983856;28;19922;-62
2022/05/17 03:49:16;;;;;;;;;;;;;;;;;;4981123;28;20457;-61
2022/05/17 03:51:41;;;;;;;;;;;;;;;;;;4980437;28;19926;-62
2022/05/17 03:54:07;;;;;;;;;;;;;;;;;;4999442;28;19968;-61
2022/05/17 03:56:34;;;;;;;;;;;;;;;;;;4984133;28;19972;-62
2022/05/17 03:59:02;;;;;;;;;;;;;;;;;;4997921;28;19921;-61
2022/05/17 04:01:27;;;;;;;;;;;;;;;;;;5014769;28;19929;-61
2022/05/17 04:03:55;;;;;;;;;;;;;;;;;;4981709;28;19922;-61
2022/05/17 04:06:22;;;;;;;;;;;;;;;;;;5012760;28;19953;-60
2022/05/17 04:08:49;;;;;;;;;;;;;;;;;;5007006;28;20013;-60
2022/05/17 04:11:14;;;;;;;;;;;;;;;;;;4996190;28;20586;-61
2022/05/17 04:13:39;;;;;;;;;;;;;;;;;;4998220;28;19932;-61
2022/05/17 04:16:04;;;;;;;;;;;;;;;;;;4980943;28;19931;-60
2022/05/17 04:18:30;;;;;;;;;;;;;;;;;;4982965;28;19925;-61
2022/05/17 04:20:58;;;;;;;;;;;;;;;;;;4985618;28;20648;-60
2022/05/17 04:23:23;;;;;;;;;;;;;;;;;;4984823;28;19932;-60
2022/05/17 04:25:48;;;;;;;;;;;;;;;;;;4993884;28;19921;-60
2022/05/17 04:28:14;;;;;;;;;;;;;;;;;;5000849;28;20062;-60
2022/05/17 04:30:43;;;;;;;;;;;;;;;;;;5009265;28;19922;-60
2022/05/17 04:33:11;;;;;;;;;;;;;;;;;;4985687;28;20004;-60
2022/05/17 04:35:36;;;;;;;;;;;;;;;;;;4975939;28;19937;-60
2022/05/17 04:38:07;;;;;;;;;;;;;;;;;;4986159;28;20297;-60
2022/05/17 04:40:32;;;;;;;;;;;;;;;;;;4986382;28;20048;-61
2022/05/17 04:43:00;;;;;;;;;;;;;;;;;;4988108;28;20479;-61
2022/05/17 04:45:25;;;;;;;;;;;;;;;;;;5001174;28;19927;-61
2022/05/17 04:47:50;;;;;;;;;;;;;;;;;;4984298;28;19918;-61
2022/05/17 04:50:16;;;;;;;;;;;;;;;;;;4983964;28;19925;-61
2022/05/17 04:52:41;;;;;;;;;;;;;;;;;;4984477;28;19926;-62
2022/05/17 04:55:09;;;;;;;;;;;;;;;;;;5016673;28;19918;-62
2022/05/17 04:57:35;;;;;;;;;;;;;;;;;;4993720;28;20841;-62
2022/05/17 05:00:02;;;;;;;;;;;;;;;;;;4986021;28;19925;-62
2022/05/17 05:02:28;;;;;;;;;;;;;;;;;;4986200;28;19996;-62
2022/05/17 05:04:53;;;;;;;;;;;;;;;;;;5015924;28;19938;-62
2022/05/17 05:07:19;;;;;;;;;;;;;;;;;;4987575;28;20384;-61
2022/05/17 05:09:57;;;;;;;;;;;;;;;;;;5008711;28;19921;-63
2022/05/17 05:12:23;;;;;;;;;;;;;;;;;;4986424;28;20504;-63
2022/05/17 05:14:48;;;;;;;;;;;;;;;;;;4991324;28;19929;-62
2022/05/17 05:17:14;;;;;;;;;;;;;;;;;;4977574;28;20003;-62
2022/05/17 05:19:41;;;;;;;;;;;;;;;;;;4986338;28;20435;-62
2022/05/17 05:22:06;;;;;;;;;;;;;;;;;;5003868;28;19961;-62
2022/05/17 05:24:32;;;;;;;;;;;;;;;;;;4992395;28;20188;-62
2022/05/17 05:26:57;;;;;;;;;;;;;;;;;;4985057;28;19969;-62
2022/05/17 05:29:25;;;;;;;;;;;;;;;;;;4985578;28;20013;-62
2022/05/17 05:31:53;;;;;;;;;;;;;;;;;;4985044;28;19941;-61
2022/05/17 05:34:19;;;;;;;;;;;;;;;;;;4986630;28;19988;-62
2022/05/17 05:36:46;;;;;;;;;;;;;;;;;;4983703;28;20044;-62
2022/05/17 05:39:11;;;;;;;;;;;;;;;;;;4985706;28;19932;-62
2022/05/17 05:41:39;;;;;;;;;;;;;;;;;;4981258;28;19925;-63
2022/05/17 05:44:04;;;;;;;;;;;;;;;;;;4987627;28;20384;-61
2022/05/17 05:46:29;;;;;;;;;;;;;;;;;;4992979;28;20063;-61
2022/05/17 05:48:57;;;;;;;;;;;;;;;;;;4984713;28;19957;-62
2022/05/17 05:51:27;;;;;;;;;;;;;;;;;;4999376;28;19929;-61
2022/05/17 05:53:52;;;;;;;;;;;;;;;;;;4990610;28;20836;-62
2022/05/17 05:56:17;;;;;;;;;;;;;;;;;;4990726;28;19921;-62
2022/05/17 05:58:45;;;;;;;;;;;;;;;;;;4985626;28;19936;-62
2022/05/17 06:01:11;;;;;;;;;;;;;;;;;;4987543;28;19925;-61
2022/05/17 06:03:36;;;;;;;;;;;;;;;;;;4992792;28;19918;-62
2022/05/17 06:06:04;;;;;;;;;;;;;;;;;;4975674;28;19921;-61
2022/05/17 06:08:32;;;;;;;;;;;;;;;;;;4985291;28;21136;-61
2022/05/17 06:11:01;;;;;;;;;;;;;;;;;;4986880;28;19921;-62
2022/05/17 06:13:27;;;;;;;;;;;;;;;;;;4987033;28;19950;-61
2022/05/17 06:15:52;;;;;;;;;;;;;;;;;;4991799;28;21964;-62
2022/05/17 06:18:20;;;;;;;;;;;;;;;;;;4992632;28;19932;-62
2022/05/17 06:20:48;;;;;;;;;;;;;;;;;;4984700;28;19918;-63
2022/05/17 06:23:13;;;;;;;;;;;;;;;;;;5016029;28;19918;-62
2022/05/17 06:25:41;;;;;;;;;;;;;;;;;;4999935;28;19929;-62
2022/05/17 06:28:06;;;;;;;;;;;;;;;;;;4984926;28;20515;-62
2022/05/17 06:30:31;;;;;;;;;;;;;;;;;;4985105;28;19936;-62
2022/05/17 06:32:57;;;;;;;;;;;;;;;;;;4981706;28;19925;-62
2022/05/17 06:35:22;;;;;;;;;;;;;;;;;;4984172;28;19964;-62
2022/05/17 06:37:47;;;;;;;;;;;;;;;;;;4991019;28;20393;-62
2022/05/17 06:40:13;;;;;;;;;;;;;;;;;;4983754;28;19928;-63
2022/05/17 06:42:40;;;;;;;;;;;;;;;;;;5007836;28;19918;-64
2022/05/17 06:45:06;;;;;;;;;;;;;;;;;;4983853;28;20036;-61
2022/05/17 06:47:31;;;;;;;;;;;;;;;;;;4982713;28;19921;-63
2022/05/17 06:49:57;;;;;;;;;;;;;;;;;;4999451;28;19932;-63
2022/05/17 06:52:27;;;;;;;;;;;;;;;;;;4983509;28;20381;-62
2022/05/17 06:54:59;;;;;;;;;;;;;;;;;;4984605;28;20013;-63
2022/05/17 06:57:24;;;;;;;;;;;;;;;;;;4983076;28;19921;-61
2022/05/17 06:59:50;;;;;;;;;;;;;;;;;;4983257;28;19930;-64
2022/05/17 07:02:16;;;;;;;;;;;;;;;;;;4981961;28;19924;-64
2022/05/17 07:04:42;;;;;;;;;;;;;;;;;;4983348;28;19921;-62
2022/05/17 07:07:10;;;;;;;;;;;;;;;;;;4983081;28;19921;-64
2022/05/17 07:09:38;;;;;;;;;;;;;;;;;;4982714;28;19917;-63
2022/05/17 07:14:50;;;;;;;;;;;;;;;;;;4983395;28;19956;-63
2022/05/17 07:17:18;;;;;;;;;;;;;;;;;;5006892;28;21856;-63
2022/05/17 07:19:45;;;;;;;;;;;;;;;;;;4983023;28;19921;-64
2022/05/17 07:22:11;;;;;;;;;;;;;;;;;;4982742;28;20378;-65
2022/05/17 07:24:36;;;;;;;;;;;;;;;;;;4983002;28;20289;-63
2022/05/17 07:27:06;;;;;;;;;;;;;;;;;;4979388;28;19921;-64
2022/05/17 07:29:32;;;;;;;;;;;;;;;;;;5013998;28;19928;-64
2022/05/17 07:31:57;;;;;;;;;;;;;;;;;;4987554;28;19921;-62
2022/05/17 07:34:22;;;;;;;;;;;;;;;;;;4980697;28;19944;-63
2022/05/17 07:36:47;;;;;;;;;;;;;;;;;;4984686;28;20466;-63
2022/05/17 07:39:13;;;;;;;;;;;;;;;;;;4981778;28;19933;-63
2022/05/17 07:41:41;;;;;;;;;;;;;;;;;;4981135;28;19921;-63
2022/05/17 07:44:07;;;;;;;;;;;;;;;;;;4983915;28;19918;-63
2022/05/17 07:46:34;;;;;;;;;;;;;;;;;;4990429;28;19921;-64
2022/05/17 07:49:00;;;;;;;;;;;;;;;;;;4985442;28;20377;-63
2022/05/17 07:51:26;;;;;;;;;;;;;;;;;;4980405;28;19965;-63
2022/05/17 07:53:51;;;;;;;;;;;;;;;;;;4981057;28;20000;-64
2022/05/17 07:56:19;;;;;;;;;;;;;;;;;;4997407;28;20008;-64
2022/05/17 07:58:47;;;;;;;;;;;;;;;;;;4983053;28;19933;-64
2022/05/17 08:01:12;;;;;;;;;;;;;;;;;;4983743;28;20507;-61
2022/05/17 08:03:40;;;;;;;;;;;;;;;;;;5006402;28;19921;-62
2022/05/17 08:06:05;;;;;;;;;;;;;;;;;;4981321;28;19996;-65
2022/05/17 08:08:31;;;;;;;;;;;;;;;;;;4983196;28;19922;-65
2022/05/17 08:10:56;;;;;;;;;;;;;;;;;;4980517;28;20004;-64
2022/05/17 08:13:22;;;;;;;;;;;;;;;;;;5014307;28;19921;-62
2022/05/17 08:15:48;;;;;;;;;;;;;;;;;;4982259;28;19995;-63
2022/05/17 08:18:14;;;;;;;;;;;;;;;;;;5001990;28;19922;-62
2022/05/17 08:20:39;;;;;;;;;;;;;;;;;;4982068;28;19922;-64
2022/05/17 08:23:07;;;;;;;;;;;;;;;;;;4980415;28;19917;-62
2022/05/17 08:28:17;;;;;;;;;;;;;;;;;;4982125;28;19921;-63
2022/05/17 08:30:46;;;;;;;;;;;;;;;;;;4981642;28;20455;-63
2022/05/17 08:33:14;;;;;;;;;;;;;;;;;;4989873;28;20559;-64
2022/05/17 08:35:40;;;;;;;;;;;;;;;;;;5013617;28;19929;-65
2022/05/17 08:38:06;;;;;;;;;;;;;;;;;;4984061;28;19933;-64
2022/05/17 08:40:31;;;;;;;;;;;;;;;;;;4997703;28;20369;-64
2022/05/17 08:42:56;;;;;;;;;;;;;;;;;;5005949;28;19929;-64
2022/05/17 08:45:21;;;;;;;;;;;;;;;;;;4981895;28;19921;-62
2022/05/17 08:47:47;;;;;;;;;;;;;;;;;;4983536;28;19941;-64
2022/05/17 08:50:12;;;;;;;;;;;;;;;;;;4982361;28;19921;-66
2022/05/17 08:52:37;;;;;;;;;;;;;;;;;;4986417;28;19922;-65
2022/05/17 08:55:03;;;;;;;;;;;;;;;;;;4982604;28;19928;-65
2022/05/17 08:57:30;;;;;;;;;;;;;;;;;;5003097;28;19917;-64
2022/05/17 08:59:58;;;;;;;;;;;;;;;;;;4982701;28;19975;-64
2022/05/17 09:02:23;;;;;;;;;;;;;;;;;;4981414;28;20023;-63
2022/05/17 09:04:49;;;;;;;;;;;;;;;;;;4989024;28;19921;-64
2022/05/17 09:07:14;;;;;;;;;;;;;;;;;;4981686;28;19932;-64
2022/05/17 09:09:40;;;;;;;;;;;;;;;;;;4982998;28;20927;-64
2022/05/17 09:12:05;;;;;;;;;;;;;;;;;;4980299;28;20472;-64
2022/05/17 09:14:30;;;;;;;;;;;;;;;;;;4992570;28;21436;-62
2022/05/17 09:16:58;;;;;;;;;;;;;;;;;;4992072;28;19932;-61
2022/05/17 09:19:23;;;;;;;;;;;;;;;;;;4985829;28;19933;-64
2022/05/17 09:21:48;;;;;;;;;;;;;;;;;;4975898;28;19971;-64
2022/05/17 09:24:14;;;;;;;;;;;;;;;;;;5016696;28;21016;-64
2022/05/17 09:26:40;;;;;;;;;;;;;;;;;;4987473;28;19918;-63
2022/05/17 09:29:05;;;;;;;;;;;;;;;;;;4984938;28;19922;-63
2022/05/17 09:31:31;;;;;;;;;;;;;;;;;;4991461;28;19921;-63
2022/05/17 09:33:59;;;;;;;;;;;;;;;;;;4985553;28;19928;-63
2022/05/17 09:36:26;;;;;;;;;;;;;;;;;;4983919;28;19957;-64
2022/05/17 09:38:51;;;;;;;;;;;;;;;;;;4975402;28;19921;-63
2022/05/17 09:41:17;;;;;;;;;;;;;;;;;;4983858;28;19925;-63
2022/05/17 09:43:47;;;;;;;;;;;;;;;;;;4986320;28;19960;-63
2022/05/17 09:46:12;;;;;;;;;;;;;;;;;;4986112;28;19921;-63
2022/05/17 09:54:12;;;;;;;;;;;;;;;;;;4984990;28;19949;-63
2022/05/17 09:56:40;;;;;;;;;;;;;;;;;;4984986;28;20004;-63
2022/05/17 09:59:07;;;;;;;;;;;;;;;;;;4982334;28;20063;-62
2022/05/17 10:01:33;;;;;;;;;;;;;;;;;;4983078;28;19926;-62
2022/05/17 10:03:58;;;;;;;;;;;;;;;;;;4984265;28;20012;-62
2022/05/17 10:06:23;;;;;;;;;;;;;;;;;;5006569;28;20172;-62
2022/05/17 10:08:55;;;;;;;;;;;;;;;;;;4988704;28;20883;-63
2022/05/17 10:11:23;;;;;;;;;;;;;;;;;;4992356;28;19917;-63
2022/05/17 10:13:51;;;;;;;;;;;;;;;;;;4992040;28;19921;-64
2022/05/17 10:16:16;;;;;;;;;;;;;;;;;;4990020;28;20007;-63
2022/05/17 10:18:41;;;;;;;;;;;;;;;;;;4984531;28;21854;-63
2022/05/17 10:21:10;;;;;;;;;;;;;;;;;;4983735;28;19921;-63
2022/05/17 10:23:38;;;;;;;;;;;;;;;;;;4992087;28;20443;-63
2022/05/17 10:26:04;;;;;;;;;;;;;;;;;;4984674;28;19933;-64
2022/05/17 10:28:31;;;;;;;;;;;;;;;;;;4988924;28;20344;-63
2022/05/17 10:30:59;;;;;;;;;;;;;;;;;;4991239;28;19921;-63
2022/05/17 10:33:26;;;;;;;;;;;;;;;;;;5015471;28;20872;-63
2022/05/17 10:35:51;;;;;;;;;;;;;;;;;;4981296;28;19936;-63
2022/05/17 10:38:18;;;;;;;;;;;;;;;;;;5016309;28;19921;-62
2022/05/17 10:40:44;;;;;;;;;;;;;;;;;;4987101;28;19945;-64
2022/05/17 10:43:12;;;;;;;;;;;;;;;;;;5007826;28;20721;-63
2022/05/17 10:45:37;;;;;;;;;;;;;;;;;;4983724;28;19925;-63
2022/05/17 10:48:05;;;;;;;;;;;;;;;;;;4987120;28;19964;-62
2022/05/17 10:50:31;;;;;;;;;;;;;;;;;;4984079;28;19967;-63
2022/05/17 10:52:57;;;;;;;;;;;;;;;;;;4983143;28;20487;-63
2022/05/17 10:55:23;;;;;;;;;;;;;;;;;;5016702;28;21860;-62
2022/05/17 10:57:48;;;;;;;;;;;;;;;;;;4982872;28;19917;-63
2022/05/17 11:00:21;;;;;;;;;;;;;;;;;;4983973;28;19929;-63
2022/05/17 11:02:47;;;;;;;;;;;;;;;;;;4981875;28;21933;-63
2022/05/17 11:05:12;;;;;;;;;;;;;;;;;;4982976;28;19928;-63
2022/05/17 11:07:38;;;;;;;;;;;;;;;;;;4985571;28;21908;-63
2022/05/17 11:10:03;;;;;;;;;;;;;;;;;;4984871;28;19917;-63
2022/05/17 11:12:31;;;;;;;;;;;;;;;;;;4982943;28;19936;-61
2022/05/17 11:14:56;;;;;;;;;;;;;;;;;;4983673;28;19928;-63
2022/05/17 11:17:24;;;;;;;;;;;;;;;;;;4984597;28;19922;-63
2022/05/17 11:19:49;;;;;;;;;;;;;;;;;;5002167;28;20006;-63
2022/05/17 11:22:15;;;;;;;;;;;;;;;;;;4983457;28;19991;-61
2022/05/17 11:24:40;;;;;;;;;;;;;;;;;;5015550;28;20071;-61
2022/05/17 11:27:06;;;;;;;;;;;;;;;;;;4982342;28;19953;-63
2022/05/17 11:29:34;;;;;;;;;;;;;;;;;;4982080;28;19925;-65
2022/05/17 11:32:02;;;;;;;;;;;;;;;;;;4998758;28;19969;-63
2022/05/17 11:34:27;;;;;;;;;;;;;;;;;;4980866;28;19929;-62
2022/05/17 11:36:52;;;;;;;;;;;;;;;;;;4985953;28;19918;-63
2022/05/17 11:39:18;;;;;;;;;;;;;;;;;;4981560;28;19921;-63
2022/05/17 11:41:45;;;;;;;;;;;;;;;;;;5001721;28;19926;-61
2022/05/17 11:44:13;;;;;;;;;;;;;;;;;;4982568;28;19933;-61
2022/05/17 11:46:39;;;;;;;;;;;;;;;;;;4982082;28;20699;-62
2022/05/17 11:49:09;;;;;;;;;;;;;;;;;;4981606;28;21749;-62
2022/05/17 11:51:38;;;;;;;;;;;;;;;;;;4983231;28;19933;-63
2022/05/17 11:54:04;;;;;;;;;;;;;;;;;;4988662;28;19925;-63
2022/05/17 11:56:32;;;;;;;;;;;;;;;;;;4979853;28;19921;-61
2022/05/17 11:58:57;;;;;;;;;;;;;;;;;;4981937;28;20425;-62
2022/05/17 12:01:22;;;;;;;;;;;;;;;;;;4981083;28;19976;-62
2022/05/17 12:03:50;;;;;;;;;;;;;;;;;;4981774;28;20552;-62
2022/05/17 12:06:18;;;;;;;;;;;;;;;;;;4981175;28;19917;-62
2022/05/17 12:08:44;;;;;;;;;;;;;;;;;;4984039;28;20511;-63
2022/05/17 12:11:10;;;;;;;;;;;;;;;;;;4982652;28;19918;-62
2022/05/17 12:13:38;;;;;;;;;;;;;;;;;;4971501;28;19936;-62
2022/05/17 12:16:05;;;;;;;;;;;;;;;;;;5004539;28;19922;-63
2022/05/17 12:18:31;;;;;;;;;;;;;;;;;;4996941;28;19936;-62
2022/05/17 12:21:00;;;;;;;;;;;;;;;;;;4981678;28;19917;-62
2022/05/17 12:23:25;;;;;;;;;;;;;;;;;;4982676;28;19921;-62
2022/05/17 12:25:50;;;;;;;;;;;;;;;;;;4982555;28;19925;-62
2022/05/17 12:28:16;;;;;;;;;;;;;;;;;;4988689;28;19918;-62
2022/05/17 12:30:53;;;;;;;;;;;;;;;;;;4982361;28;19917;-63
2022/05/17 12:33:18;;;;;;;;;;;;;;;;;;4982397;28;19918;-62
2022/05/17 12:35:48;;;;;;;;;;;;;;;;;;4982276;28;19929;-63
2022/05/17 12:43:41;;;;;;;;;;;;;;;;;;4988279;28;19925;-63
2022/05/17 12:46:07;;;;;;;;;;;;;;;;;;4986595;28;20269;-63
2022/05/17 12:48:32;;;;;;;;;;;;;;;;;;4986014;28;20131;-62
2022/05/17 12:50:58;;;;;;;;;;;;;;;;;;5006058;28;20070;-63
2022/05/17 12:53:23;;;;;;;;;;;;;;;;;;4986614;28;19918;-64
2022/05/17 12:55:50;;;;;;;;;;;;;;;;;;4985632;28;20393;-62
2022/05/17 12:58:16;;;;;;;;;;;;;;;;;;4983837;28;19976;-62
2022/05/17 13:00:43;;;;;;;;;;;;;;;;;;4985140;28;19922;-62
2022/05/17 13:03:11;;;;;;;;;;;;;;;;;;4986743;28;21004;-64
2022/05/17 13:05:36;;;;;;;;;;;;;;;;;;4984028;28;19996;-63
2022/05/17 13:08:02;;;;;;;;;;;;;;;;;;4982852;28;19933;-63
2022/05/17 13:10:27;;;;;;;;;;;;;;;;;;4991589;28;19932;-63
2022/05/17 13:12:54;;;;;;;;;;;;;;;;;;5006261;28;19921;-63
2022/05/17 13:15:20;;;;;;;;;;;;;;;;;;4983925;28;19945;-63
2022/05/17 13:17:46;;;;;;;;;;;;;;;;;;4987327;28;20427;-64
2022/05/17 13:20:11;;;;;;;;;;;;;;;;;;4983572;28;19948;-62
2022/05/17 13:22:37;;;;;;;;;;;;;;;;;;4992706;28;19921;-62
2022/05/17 13:25:02;;;;;;;;;;;;;;;;;;5005417;28;19997;-62
2022/05/17 13:27:28;;;;;;;;;;;;;;;;;;4986160;28;19928;-61
2022/05/17 13:29:53;;;;;;;;;;;;;;;;;;4986238;28;20331;-62
2022/05/17 13:32:21;;;;;;;;;;;;;;;;;;4993409;28;19932;-61
2022/05/17 13:34:47;;;;;;;;;;;;;;;;;;4985603;28;19922;-62
2022/05/17 13:37:12;;;;;;;;;;;;;;;;;;4990458;28;20426;-62
2022/05/17 13:39:38;;;;;;;;;;;;;;;;;;4985608;28;19922;-62
2022/05/17 13:42:04;;;;;;;;;;;;;;;;;;4992338;28;20493;-62
2022/05/17 13:44:32;;;;;;;;;;;;;;;;;;4985563;28;19921;-63
2022/05/17 13:46:57;;;;;;;;;;;;;;;;;;4993497;28;19917;-63
2022/05/17 13:49:22;;;;;;;;;;;;;;;;;;4985591;28;19973;-63
2022/05/17 13:51:48;;;;;;;;;;;;;;;;;;5016440;28;19961;-63
2022/05/17 13:54:14;;;;;;;;;;;;;;;;;;5002590;28;20863;-62
2022/05/17 13:56:40;;;;;;;;;;;;;;;;;;4984136;28;19922;-62
2022/05/17 13:59:05;;;;;;;;;;;;;;;;;;4985239;28;20297;-62
2022/05/17 14:01:31;;;;;;;;;;;;;;;;;;4985126;28;19918;-62
2022/05/17 14:03:56;;;;;;;;;;;;;;;;;;4981362;28;20064;-63
2022/05/17 14:06:24;;;;;;;;;;;;;;;;;;4983970;28;19922;-62
2022/05/17 14:11:54;;;;;;;;;;;;;;;;;;4984195;28;19958;-62
2022/05/17 14:14:19;;;;;;;;;;;;;;;;;;4982977;28;19966;-62
2022/05/17 14:16:47;;;;;;;;;;;;;;;;;;5010560;28;20072;-61
2022/05/17 14:19:15;;;;;;;;;;;;;;;;;;5012659;28;19926;-62
2022/05/17 14:21:42;;;;;;;;;;;;;;;;;;4991127;28;20560;-61
2022/05/17 14:24:14;;;;;;;;;;;;;;;;;;4983747;28;19922;-61
2022/05/17 14:26:42;;;;;;;;;;;;;;;;;;4984938;28;20134;-62
2022/05/17 14:29:10;;;;;;;;;;;;;;;;;;4987330;28;19925;-62
2022/05/17 14:31:38;;;;;;;;;;;;;;;;;;4985366;28;19917;-61
2022/05/17 14:34:03;;;;;;;;;;;;;;;;;;4990971;28;19960;-61
2022/05/17 14:36:28;;;;;;;;;;;;;;;;;;4983571;28;19918;-61
2022/05/17 14:38:56;;;;;;;;;;;;;;;;;;4983580;28;19963;-61
2022/05/17 14:41:22;;;;;;;;;;;;;;;;;;4985448;28;20127;-62
2022/05/17 14:43:53;;;;;;;;;;;;;;;;;;4985339;28;20313;-62
2022/05/17 14:46:18;;;;;;;;;;;;;;;;;;4985186;28;19956;-62
2022/05/17 14:48:43;;;;;;;;;;;;;;;;;;4983378;28;20568;-62
2022/05/17 14:51:12;;;;;;;;;;;;;;;;;;4982556;28;19921;-63
2022/05/17 14:53:40;;;;;;;;;;;;;;;;;;4983501;28;19926;-63
2022/05/17 14:56:05;;;;;;;;;;;;;;;;;;4983606;28;19928;-62
2022/05/17 14:58:31;;;;;;;;;;;;;;;;;;5015482;28;20099;-62
2022/05/17 15:00:57;;;;;;;;;;;;;;;;;;4987723;28;19926;-63
2022/05/17 15:03:24;;;;;;;;;;;;;;;;;;4982082;28;20567;-62
2022/05/17 15:05:52;;;;;;;;;;;;;;;;;;4980234;28;20657;-62
2022/05/17 15:08:20;;;;;;;;;;;;;;;;;;4983168;28;20357;-63
2022/05/17 15:10:46;;;;;;;;;;;;;;;;;;4983556;28;19956;-62
2022/05/17 15:13:12;;;;;;;;;;;;;;;;;;4996263;28;20349;-63
2022/05/17 15:15:37;;;;;;;;;;;;;;;;;;4989107;28;19928;-61
2022/05/17 15:18:10;;;;;;;;;;;;;;;;;;5008958;28;20016;-60
2022/05/17 15:20:35;;;;;;;;;;;;;;;;;;4982689;28;19922;-62
2022/05/17 15:23:04;;;;;;;;;;;;;;;;;;4983483;28;19957;-60
2022/05/17 15:25:29;;;;;;;;;;;;;;;;;;4989049;28;19921;-60
2022/05/17 15:27:57;;;;;;;;;;;;;;;;;;4984324;28;19930;-59
2022/05/17 15:30:23;;;;;;;;;;;;;;;;;;4983663;28;19932;-61
2022/05/17 15:32:48;;;;;;;;;;;;;;;;;;4983385;28;20028;-61
2022/05/17 15:35:13;;;;;;;;;;;;;;;;;;4989019;28;20047;-61
2022/05/17 15:37:41;;;;;;;;;;;;;;;;;;4997495;28;19927;-61
2022/05/17 15:40:07;;;;;;;;;;;;;;;;;;4982739;28;19917;-61
2022/05/17 15:42:37;;;;;;;;;;;;;;;;;;4983569;28;20181;-61
2022/05/17 15:45:05;;;;;;;;;;;;;;;;;;4990235;28;21832;-61
2022/05/17 15:53:18;;;;;;;;;;;;;;;;;;4988995;28;20063;-61
2022/05/17 15:55:46;;;;;;;;;;;;;;;;;;4981999;28;19932;-59
2022/05/17 15:58:11;;;;;;;;;;;;;;;;;;4981492;28;19918;-60
2022/05/17 16:00:37;;;;;;;;;;;;;;;;;;4982162;28;19924;-60
2022/05/17 16:03:02;;;;;;;;;;;;;;;;;;4981953;28;19921;-60
2022/05/17 16:05:31;;;;;;;;;;;;;;;;;;4983381;28;19957;-59
2022/05/17 16:08:08;;;;;;;;;;;;;;;;;;4982521;28;20403;-60
2022/05/17 16:10:34;;;;;;;;;;;;;;;;;;4983034;28;19960;-61
2022/05/17 16:12:59;;;;;;;;;;;;;;;;;;4973707;28;19917;-60
2022/05/17 16:15:28;;;;;;;;;;;;;;;;;;4999881;28;20013;-59
2022/05/17 16:17:53;;;;;;;;;;;;;;;;;;4988317;28;19918;-60
2022/05/17 16:20:18;;;;;;;;;;;;;;;;;;4997843;28;20734;-61
2022/05/17 16:22:44;;;;;;;;;;;;;;;;;;4983720;28;19917;-60
2022/05/17 16:25:09;;;;;;;;;;;;;;;;;;5018789;28;20059;-61
2022/05/17 16:27:37;;;;;;;;;;;;;;;;;;4986253;28;19922;-61
2022/05/17 16:30:06;;;;;;;;;;;;;;;;;;4990023;28;19926;-60
2022/05/17 16:32:33;;;;;;;;;;;;;;;;;;4999458;28;20990;-60
2022/05/17 16:34:59;;;;;;;;;;;;;;;;;;4985796;28;19922;-61
2022/05/17 16:37:24;;;;;;;;;;;;;;;;;;4993689;28;19932;-61
2022/05/17 16:39:52;;;;;;;;;;;;;;;;;;4984846;28;19953;-58
2022/05/17 16:42:21;;;;;;;;;;;;;;;;;;4986142;28;19976;-60
2022/05/17 16:44:49;;;;;;;;;;;;;;;;;;4987667;28;20051;-59
2022/05/17 16:47:14;;;;;;;;;;;;;;;;;;4986346;28;19932;-58
2022/05/17 16:49:39;;;;;;;;;;;;;;;;;;4987098;28;19922;-59
2022/05/17 16:52:07;;;;;;;;;;;;;;;;;;4987031;28;19960;-59
2022/05/17 16:54:37;;;;;;;;;;;;;;;;;;4985203;28;20781;-61
2022/05/17 16:57:03;;;;;;;;;;;;;;;;;;5007305;28;20015;-58
2022/05/17 16:59:28;;;;;;;;;;;;;;;;;;4985385;28;20008;-60
2022/05/17 17:01:55;;;;;;;;;;;;;;;;;;4986533;28;19921;-60
2022/05/17 17:04:23;;;;;;;;;;;;;;;;;;4984076;28;19922;-60
2022/05/17 17:06:48;;;;;;;;;;;;;;;;;;4987174;28;19987;-60